Washington Express — WDD3826 — position and weather

sailwx.info

Track history (hours):
 
Tides and Currents Weather Stations Pressure Air Temp Water Temp Dewpoint Dewpoint Depression Visibility Wind Speed Wind Dir Waves Ship Positions

Washington Express

Owner: Marine Transport Management - Nick Orfanidis, Jacksonville, FL. More information available from US FCC via Universal Licensing System.

Last reported at 2017-Dec-11 15:00 UTC. Time now 2017-Dec-14 08:22 UTC.
Position N 37°24' W 053°54'.

Type: Ship (hazmat cat A). MMSI: 367136710.

Wind from 210 at 10 knots

Barometer 1019.1 mb
Air temperature 20.0 ° C
Dewpoint 18.4 ° C
Water temperature 22.0 ° C

Date/timePositionNaut miles runAvg speedWind from/ knotsBaromVisibWave heightAir tempDewpointWater temp
2017-Dec-11 15:00N 37°24' W 053°54'5518.4 210 / 101019.1 20.018.422.0
2017-Dec-11 12:00N 37°42' W 052°48'5518.4 210 / 301019.0 5.4 22.018.922.0
2017-Dec-11 09:00N 38°00' W 051°42'10517.5 210 / 301019.1 5.4 22.017.222.0
2017-Dec-11 03:00N 38°36' W 049°36'5518.2 200 / 321021.710.8 21.017.822.0
2017-Dec-11 00:00N 38°54' W 048°30'17619.5 200 / 231024.110.8 21.019.420.0
2017-Dec-10 15:00N 39°48' W 044°54'4916.5 200 / 151025.610.8 21.017.818.0
2017-Dec-10 12:00N 40°06' W 043°54'4321.5 230 / 151026.610.8 20.016.718.0
2017-Dec-10 10:00N 40°18' W 043°00'42819.4 250 / 121025.6 5.4 21.019.422.0
2017-Dec-09 12:00N 42°36' W 034°00'6622.0 320 / 151025.810.8 16.0 5.618.0
2017-Dec-09 09:00N 43°00' W 032°36'16618.4 310 / 251021.6 5.4 16.014.318.0
2017-Dec-09 00:00N 43°54' W 029°00'24020.0 220 / 221020.210.8 18.018.018.0
2017-Dec-08 12:00N 45°12' W 023°42'5426.9 200 / 221024.4 5.4 12.012.016.0
2017-Dec-08 10:00N 45°30' W 022°30'43419.7 200 / 211024.710.8 17.015.316.0
2017-Dec-07 12:00N 47°48' W 012°30'3812.7 350 / 191022.3 14.0 8.014.0
2017-Dec-07 09:00N 48°00' W 011°36'10617.7 340 / 171020.710.8 12.010.114.0
2017-Dec-07 03:00N 48°36' W 009°06'33918.9 270 / 381011.7 16.012.412.0
2017-Dec-06 09:00N 50°18' W 000°48'395 8.5 200 / 211029.710.8 14.0 8.012.0
2017-Dec-04 10:30N 53°41' E 008°22'510.6
2017-Dec-04 10:00N 53°37' E 008°29'3 6.1
2017-Dec-04 09:30N 53°35' E 008°32'0 0.3
2017-Dec-04 08:59N 53°35' E 008°32'0 0.0
2017-Dec-04 08:29N 53°35' E 008°32'0 0.0
2017-Dec-04 07:59N 53°35' E 008°32'0 0.0
2017-Dec-04 07:29N 53°35' E 008°32'0 0.0
2017-Dec-04 06:56N 53°35' E 008°32'0 0.0
2017-Dec-04 06:29N 53°35' E 008°32'0 0.0
2017-Dec-04 05:56N 53°35' E 008°32'0 0.0
2017-Dec-04 05:29N 53°35' E 008°32'0 0.0
2017-Dec-04 04:59N 53°35' E 008°32'0 0.0
2017-Dec-04 04:29N 53°35' E 008°32'0 0.0
2017-Dec-04 03:59N 53°35' E 008°32'0 0.0
2017-Dec-04 03:29N 53°35' E 008°32'0 0.0
2017-Dec-04 02:59N 53°35' E 008°32'0 0.0
2017-Dec-04 02:26N 53°35' E 008°32'0 0.0
2017-Dec-04 01:59N 53°35' E 008°32'0 0.0
2017-Dec-04 01:26N 53°35' E 008°32'0 0.0
2017-Dec-04 00:59N 53°35' E 008°32'0 0.0
2017-Dec-04 00:29N 53°35' E 008°32'0 0.0
2017-Dec-03 23:59N 53°35' E 008°32'0 0.0
2017-Dec-03 23:26N 53°35' E 008°32'0 0.0
2017-Dec-03 22:59N 53°35' E 008°32'0 0.0
2017-Dec-03 22:29N 53°35' E 008°32'0 0.0
2017-Dec-03 21:59N 53°35' E 008°32'0 0.0
2017-Dec-03 21:29N 53°35' E 008°32'0 0.0
2017-Dec-03 20:59N 53°35' E 008°32'0 0.0
2017-Dec-03 20:29N 53°35' E 008°32'0 0.0
2017-Dec-03 19:59N 53°35' E 008°32'0 0.0
2017-Dec-03 19:29N 53°35' E 008°32'0 0.0
2017-Dec-03 18:59N 53°35' E 008°32'0 0.0
2017-Dec-03 18:29N 53°35' E 008°32'0 0.0
2017-Dec-03 17:59N 53°35' E 008°32'0 0.0
2017-Dec-03 17:29N 53°35' E 008°32'0 0.0
2017-Dec-03 16:59N 53°35' E 008°32'0 0.0
2017-Dec-03 16:29N 53°35' E 008°32'0 0.0
2017-Dec-03 15:59N 53°35' E 008°32'0 0.0
2017-Dec-03 15:29N 53°35' E 008°32'0 0.0
2017-Dec-03 14:59N 53°35' E 008°32'0 0.4
2017-Dec-03 14:30N 53°35' E 008°32'2 4.8
2017-Dec-03 14:00N 53°37' E 008°29'5 9.5
2017-Dec-03 13:30N 53°40' E 008°23'611.7
2017-Dec-03 13:00N 53°44' E 008°15'611.8
2017-Dec-03 12:30N 53°48' E 008°08'510.0
2017-Dec-03 12:00N 53°51' E 008°01'612.6
2017-Dec-03 11:29N 53°52' E 007°50'611.8
2017-Dec-03 11:00N 53°53' E 007°41'2 4.4
2017-Dec-03 10:31N 53°52' E 007°37'1 2.0
2017-Dec-03 10:00N 53°53' E 007°37'2 3.8
2017-Dec-03 09:28N 53°54' E 007°34'4 8.6
2017-Dec-03 08:58N 53°53' E 007°27'6917.9
2017-Dec-03 05:07N 53°36' E 005°33'221.6
2017-Dec-03 05:01N 53°36' E 005°29'1121.6
2017-Dec-03 04:30N 53°32' E 005°12'1121.4
2017-Dec-03 04:00N 53°28' E 004°55'1019.9
2017-Dec-03 03:29N 53°22' E 004°42'1020.9
2017-Dec-03 03:00N 53°13' E 004°35'1020.9
2017-Dec-03 02:30N 53°04' E 004°24'1021.0
2017-Dec-03 02:00N 52°55' E 004°16'1121.7
2017-Dec-03 01:30N 52°46' E 004°06'1121.9
2017-Dec-03 01:00N 52°39' E 003°52'1221.3
2017-Dec-03 00:27N 52°30' E 003°39'4319.6
2017-Dec-02 22:16N 51°53' E 003°07'415.4
2017-Dec-02 21:59N 51°49' E 003°10'7 7.3
2017-Dec-02 20:59N 51°42' E 003°14'511.0
2017-Dec-02 20:30N 51°37' E 003°11'612.4
2017-Dec-02 20:00N 51°32' E 003°06'612.3
2017-Dec-02 19:31N 51°27' E 003°00'510.8
2017-Dec-02 19:00N 51°24' E 003°08'714.6
2017-Dec-02 18:30N 51°24' E 003°19'815.1
2017-Dec-02 18:01N 51°25' E 003°31'612.4
2017-Dec-02 17:30N 51°26' E 003°41'714.7
2017-Dec-02 17:00N 51°21' E 003°50'714.9
2017-Dec-02 16:30N 51°26' E 003°59'612.9
2017-Dec-02 16:01N 51°22' E 004°07'510.2
2017-Dec-02 15:30N 51°21' E 004°15'1 2.1
2017-Dec-02 15:00N 51°20' E 004°16'0 0.0
2017-Dec-02 14:31N 51°20' E 004°16'0 0.0
2017-Dec-02 13:58N 51°20' E 004°16'0 0.0
2017-Dec-02 13:28N 51°20' E 004°16'0 0.0
2017-Dec-02 12:58N 51°20' E 004°16'0 0.0
2017-Dec-02 12:31N 51°20' E 004°16'0 0.0
2017-Dec-02 12:00N 51°20' E 004°16'0 0.0
2017-Dec-02 11:28N 51°20' E 004°16'0 0.0
2017-Dec-02 11:01N 51°20' E 004°16'0 0.0
2017-Dec-02 10:31N 51°20' E 004°16'0 0.0
2017-Dec-02 10:01N 51°20' E 004°16'0 0.0
2017-Dec-02 09:28N 51°20' E 004°16'0 0.0
2017-Dec-02 09:01N 51°20' E 004°16'0 0.0
2017-Dec-02 08:30N 51°20' E 004°16'0 0.0
2017-Dec-02 08:00N 51°20' E 004°16'0 0.0
2017-Dec-02 07:30N 51°21' E 004°16'0 0.0
2017-Dec-02 06:56N 51°20' E 004°16'0 0.0
2017-Dec-02 06:29N 51°20' E 004°16'0 0.0
2017-Dec-02 06:00N 51°20' E 004°16'0 0.0
2017-Dec-02 05:30N 51°20' E 004°16'0 0.0
2017-Dec-02 05:00N 51°20' E 004°16'0 0.0
2017-Dec-02 04:31N 51°20' E 004°16'0 0.1
2017-Dec-02 04:00N 51°21' E 004°16'0 0.0
2017-Dec-02 03:28N 51°20' E 004°16'0 0.0
2017-Dec-02 03:00N 51°20' E 004°16'0 0.0
2017-Dec-02 02:31N 51°20' E 004°16'0 0.0
2017-Dec-02 01:59N 51°20' E 004°16'0 0.0
2017-Dec-02 01:30N 51°20' E 004°16'0 0.0
2017-Dec-02 01:00N 51°20' E 004°16'0 0.0
2017-Dec-02 00:31N 51°20' E 004°16'0 0.0
2017-Dec-02 00:00N 51°20' E 004°16'0 0.0
2017-Dec-01 23:30N 51°21' E 004°16'0 0.0
2017-Dec-01 23:00N 51°20' E 004°16'0 0.0
2017-Dec-01 22:30N 51°20' E 004°16'0 0.0
2017-Dec-01 22:00N 51°20' E 004°16'0 0.0
2017-Dec-01 21:30N 51°20' E 004°16'0 0.0
2017-Dec-01 20:56N 51°20' E 004°16'0 0.0
2017-Dec-01 20:29N 51°20' E 004°16'0 0.0
2017-Dec-01 20:01N 51°20' E 004°16'0 0.0
2017-Dec-01 19:24N 51°20' E 004°16'0 0.0
2017-Dec-01 19:00N 51°20' E 004°16'0 0.0
2017-Dec-01 18:30N 51°20' E 004°16'0 0.0
2017-Dec-01 18:01N 51°20' E 004°16'0 0.0
2017-Dec-01 17:28N 51°20' E 004°16'0 0.0
2017-Dec-01 17:01N 51°20' E 004°16'0 0.0
2017-Dec-01 16:30N 51°20' E 004°16'0 0.0
2017-Dec-01 16:00N 51°20' E 004°16'0 0.0
2017-Dec-01 15:30N 51°21' E 004°16'0 0.0
2017-Dec-01 15:00N 51°20' E 004°16'  
Track history (hours):
 
Tides and Currents Weather Stations Pressure Air Temp Water Temp Dewpoint Dewpoint Depression Visibility Wind Speed Wind Dir Waves Ship Positions

Washington Express

Owner: Marine Transport Management - Nick Orfanidis, Jacksonville, FL. More information available from US FCC via Universal Licensing System.

Last reported at 2017-Dec-11 15:00 UTC. Time now 2017-Dec-14 08:22 UTC.
Position N 37°24' W 053°54'.

Type: Ship (hazmat cat A). MMSI: 367136710.

Wind from 210 at 10 knots

Barometer 1019.1 mb
Air temperature 20.0 ° C
Dewpoint 18.4 ° C
Water temperature 22.0 ° C

Date/timePositionNaut miles runAvg speedWind from/ knotsBaromVisibWave heightAir tempDewpointWater temp
2017-Dec-11 15:00N 37°24' W 053°54'5518.4 210 / 101019.1 20.018.422.0
2017-Dec-11 12:00N 37°42' W 052°48'5518.4 210 / 301019.0 5.4 22.018.922.0
2017-Dec-11 09:00N 38°00' W 051°42'10517.5 210 / 301019.1 5.4 22.017.222.0
2017-Dec-11 03:00N 38°36' W 049°36'5518.2 200 / 321021.710.8 21.017.822.0
2017-Dec-11 00:00N 38°54' W 048°30'17619.5 200 / 231024.110.8 21.019.420.0
2017-Dec-10 15:00N 39°48' W 044°54'4916.5 200 / 151025.610.8 21.017.818.0
2017-Dec-10 12:00N 40°06' W 043°54'4321.5 230 / 151026.610.8 20.016.718.0
2017-Dec-10 10:00N 40°18' W 043°00'42819.4 250 / 121025.6 5.4 21.019.422.0
2017-Dec-09 12:00N 42°36' W 034°00'6622.0 320 / 151025.810.8 16.0 5.618.0
2017-Dec-09 09:00N 43°00' W 032°36'16618.4 310 / 251021.6 5.4 16.014.318.0
2017-Dec-09 00:00N 43°54' W 029°00'24020.0 220 / 221020.210.8 18.018.018.0
2017-Dec-08 12:00N 45°12' W 023°42'5426.9 200 / 221024.4 5.4 12.012.016.0
2017-Dec-08 10:00N 45°30' W 022°30'43419.7 200 / 211024.710.8 17.015.316.0
2017-Dec-07 12:00N 47°48' W 012°30'3812.7 350 / 191022.3 14.0 8.014.0
2017-Dec-07 09:00N 48°00' W 011°36'10617.7 340 / 171020.710.8 12.010.114.0
2017-Dec-07 03:00N 48°36' W 009°06'33918.9 270 / 381011.7 16.012.412.0
2017-Dec-06 09:00N 50°18' W 000°48'395 8.5 200 / 211029.710.8 14.0 8.012.0
2017-Dec-04 10:30N 53°41' E 008°22'510.6
2017-Dec-04 10:00N 53°37' E 008°29'3 6.1
2017-Dec-04 09:30N 53°35' E 008°32'0 0.3
2017-Dec-04 08:59N 53°35' E 008°32'0 0.0
2017-Dec-04 08:29N 53°35' E 008°32'0 0.0
2017-Dec-04 07:59N 53°35' E 008°32'0 0.0
2017-Dec-04 07:29N 53°35' E 008°32'0 0.0
2017-Dec-04 06:56N 53°35' E 008°32'0 0.0
2017-Dec-04 06:29N 53°35' E 008°32'0 0.0
2017-Dec-04 05:56N 53°35' E 008°32'0 0.0
2017-Dec-04 05:29N 53°35' E 008°32'0 0.0
2017-Dec-04 04:59N 53°35' E 008°32'0 0.0
2017-Dec-04 04:29N 53°35' E 008°32'0 0.0
2017-Dec-04 03:59N 53°35' E 008°32'0 0.0
2017-Dec-04 03:29N 53°35' E 008°32'0 0.0
2017-Dec-04 02:59N 53°35' E 008°32'0 0.0
2017-Dec-04 02:26N 53°35' E 008°32'0 0.0
2017-Dec-04 01:59N 53°35' E 008°32'0 0.0
2017-Dec-04 01:26N 53°35' E 008°32'0 0.0
2017-Dec-04 00:59N 53°35' E 008°32'0 0.0
2017-Dec-04 00:29N 53°35' E 008°32'0 0.0
2017-Dec-03 23:59N 53°35' E 008°32'0 0.0
2017-Dec-03 23:26N 53°35' E 008°32'0 0.0
2017-Dec-03 22:59N 53°35' E 008°32'0 0.0
2017-Dec-03 22:29N 53°35' E 008°32'0 0.0
2017-Dec-03 21:59N 53°35' E 008°32'0 0.0
2017-Dec-03 21:29N 53°35' E 008°32'0 0.0
2017-Dec-03 20:59N 53°35' E 008°32'0 0.0
2017-Dec-03 20:29N 53°35' E 008°32'0 0.0
2017-Dec-03 19:59N 53°35' E 008°32'0 0.0
2017-Dec-03 19:29N 53°35' E 008°32'0 0.0
2017-Dec-03 18:59N 53°35' E 008°32'0 0.0
2017-Dec-03 18:29N 53°35' E 008°32'0 0.0
2017-Dec-03 17:59N 53°35' E 008°32'0 0.0
2017-Dec-03 17:29N 53°35' E 008°32'0 0.0
2017-Dec-03 16:59N 53°35' E 008°32'0 0.0
2017-Dec-03 16:29N 53°35' E 008°32'0 0.0
2017-Dec-03 15:59N 53°35' E 008°32'0 0.0
2017-Dec-03 15:29N 53°35' E 008°32'0 0.0
2017-Dec-03 14:59N 53°35' E 008°32'0 0.4
2017-Dec-03 14:30N 53°35' E 008°32'2 4.8
2017-Dec-03 14:00N 53°37' E 008°29'5 9.5
2017-Dec-03 13:30N 53°40' E 008°23'611.7
2017-Dec-03 13:00N 53°44' E 008°15'611.8
2017-Dec-03 12:30N 53°48' E 008°08'510.0
2017-Dec-03 12:00N 53°51' E 008°01'612.6
2017-Dec-03 11:29N 53°52' E 007°50'611.8
2017-Dec-03 11:00N 53°53' E 007°41'2 4.4
2017-Dec-03 10:31N 53°52' E 007°37'1 2.0
2017-Dec-03 10:00N 53°53' E 007°37'2 3.8
2017-Dec-03 09:28N 53°54' E 007°34'4 8.6
2017-Dec-03 08:58N 53°53' E 007°27'6917.9
2017-Dec-03 05:07N 53°36' E 005°33'221.6
2017-Dec-03 05:01N 53°36' E 005°29'1121.6
2017-Dec-03 04:30N 53°32' E 005°12'1121.4
2017-Dec-03 04:00N 53°28' E 004°55'1019.9
2017-Dec-03 03:29N 53°22' E 004°42'1020.9
2017-Dec-03 03:00N 53°13' E 004°35'1020.9
2017-Dec-03 02:30N 53°04' E 004°24'1021.0
2017-Dec-03 02:00N 52°55' E 004°16'1121.7
2017-Dec-03 01:30N 52°46' E 004°06'1121.9
2017-Dec-03 01:00N 52°39' E 003°52'1221.3
2017-Dec-03 00:27N 52°30' E 003°39'4319.6
2017-Dec-02 22:16N 51°53' E 003°07'415.4
2017-Dec-02 21:59N 51°49' E 003°10'7 7.3
2017-Dec-02 20:59N 51°42' E 003°14'511.0
2017-Dec-02 20:30N 51°37' E 003°11'612.4
2017-Dec-02 20:00N 51°32' E 003°06'612.3
2017-Dec-02 19:31N 51°27' E 003°00'510.8
2017-Dec-02 19:00N 51°24' E 003°08'714.6
2017-Dec-02 18:30N 51°24' E 003°19'815.1
2017-Dec-02 18:01N 51°25' E 003°31'612.4
2017-Dec-02 17:30N 51°26' E 003°41'714.7
2017-Dec-02 17:00N 51°21' E 003°50'714.9
2017-Dec-02 16:30N 51°26' E 003°59'612.9
2017-Dec-02 16:01N 51°22' E 004°07'510.2
2017-Dec-02 15:30N 51°21' E 004°15'1 2.1
2017-Dec-02 15:00N 51°20' E 004°16'0 0.0
2017-Dec-02 14:31N 51°20' E 004°16'0 0.0
2017-Dec-02 13:58N 51°20' E 004°16'0 0.0
2017-Dec-02 13:28N 51°20' E 004°16'0 0.0
2017-Dec-02 12:58N 51°20' E 004°16'0 0.0
2017-Dec-02 12:31N 51°20' E 004°16'0 0.0
2017-Dec-02 12:00N 51°20' E 004°16'0 0.0
2017-Dec-02 11:28N 51°20' E 004°16'0 0.0
2017-Dec-02 11:01N 51°20' E 004°16'0 0.0
2017-Dec-02 10:31N 51°20' E 004°16'0 0.0
2017-Dec-02 10:01N 51°20' E 004°16'0 0.0
2017-Dec-02 09:28N 51°20' E 004°16'0 0.0
2017-Dec-02 09:01N 51°20' E 004°16'0 0.0
2017-Dec-02 08:30N 51°20' E 004°16'0 0.0
2017-Dec-02 08:00N 51°20' E 004°16'0 0.0
2017-Dec-02 07:30N 51°21' E 004°16'0 0.0
2017-Dec-02 06:56N 51°20' E 004°16'0 0.0
2017-Dec-02 06:29N 51°20' E 004°16'0 0.0
2017-Dec-02 06:00N 51°20' E 004°16'0 0.0
2017-Dec-02 05:30N 51°20' E 004°16'0 0.0
2017-Dec-02 05:00N 51°20' E 004°16'0 0.0
2017-Dec-02 04:31N 51°20' E 004°16'0 0.1
2017-Dec-02 04:00N 51°21' E 004°16'0 0.0
2017-Dec-02 03:28N 51°20' E 004°16'0 0.0
2017-Dec-02 03:00N 51°20' E 004°16'0 0.0
2017-Dec-02 02:31N 51°20' E 004°16'0 0.0
2017-Dec-02 01:59N 51°20' E 004°16'0 0.0
2017-Dec-02 01:30N 51°20' E 004°16'0 0.0
2017-Dec-02 01:00N 51°20' E 004°16'0 0.0
2017-Dec-02 00:31N 51°20' E 004°16'0 0.0
2017-Dec-02 00:00N 51°20' E 004°16'0 0.0
2017-Dec-01 23:30N 51°21' E 004°16'0 0.0
2017-Dec-01 23:00N 51°20' E 004°16'0 0.0
2017-Dec-01 22:30N 51°20' E 004°16'0 0.0
2017-Dec-01 22:00N 51°20' E 004°16'0 0.0
2017-Dec-01 21:30N 51°20' E 004°16'0 0.0
2017-Dec-01 20:56N 51°20' E 004°16'0 0.0
2017-Dec-01 20:29N 51°20' E 004°16'0 0.0
2017-Dec-01 20:01N 51°20' E 004°16'0 0.0
2017-Dec-01 19:24N 51°20' E 004°16'0 0.0
2017-Dec-01 19:00N 51°20' E 004°16'0 0.0
2017-Dec-01 18:30N 51°20' E 004°16'0 0.0
2017-Dec-01 18:01N 51°20' E 004°16'0 0.0
2017-Dec-01 17:28N 51°20' E 004°16'0 0.0
2017-Dec-01 17:01N 51°20' E 004°16'0 0.0
2017-Dec-01 16:30N 51°20' E 004°16'0 0.0
2017-Dec-01 16:00N 51°20' E 004°16'0 0.0
2017-Dec-01 15:30N 51°21' E 004°16'0 0.0
2017-Dec-01 15:00N 51°20' E 004°16'  

Dump ship's entire track history